sensor_id;sensor_type;location;lat;lon;timestamp;P1;durP1;ratioP1;P2;durP2;ratioP2
18623;SDS011;9441;51.420;7.036;2023-07-30T00:00:50;8.75;;;4.15;;
18623;SDS011;9441;51.420;7.036;2023-07-30T00:01:52;15.60;;;4.40;;
18623;SDS011;9441;51.420;7.036;2023-07-30T00:02:53;9.52;;;3.92;;
18623;SDS011;9441;51.420;7.036;2023-07-30T00:03:55;10.27;;;4.18;;
18623;SDS011;9441;51.420;7.036;2023-07-30T00:04:57;8.00;;;4.03;;
18623;SDS011;9441;51.420;7.036;2023-07-30T00:05:59;9.75;;;4.38;;
18623;SDS011;9441;51.420;7.036;2023-07-30T00:07:00;10.52;;;4.68;;
18623;SDS011;9441;51.420;7.036;2023-07-30T00:08:03;9.88;;;4.47;;
18623;SDS011;9441;51.420;7.036;2023-07-30T00:09:04;9.63;;;4.28;;
18623;SDS011;9441;51.420;7.036;2023-07-30T00:10:07;10.40;;;4.32;;
18623;SDS011;9441;51.420;7.036;2023-07-30T00:11:08;9.65;;;4.13;;
18623;SDS011;9441;51.420;7.036;2023-07-30T00:12:10;10.23;;;4.30;;
18623;SDS011;9441;51.420;7.036;2023-07-30T00:13:12;10.75;;;4.38;;
18623;SDS011;9441;51.420;7.036;2023-07-30T00:14:16;11.18;;;4.25;;
18623;SDS011;9441;51.420;7.036;2023-07-30T00:15:17;7.97;;;3.80;;
18623;SDS011;9441;51.420;7.036;2023-07-30T00:16:19;10.85;;;4.40;;
18623;SDS011;9441;51.420;7.036;2023-07-30T00:17:21;13.82;;;4.07;;
18623;SDS011;9441;51.420;7.036;2023-07-30T00:18:23;11.45;;;4.40;;
18623;SDS011;9441;51.420;7.036;2023-07-30T00:19:24;10.07;;;4.22;;
18623;SDS011;9441;51.420;7.036;2023-07-30T00:20:27;9.88;;;4.10;;
18623;SDS011;9441;51.420;7.036;2023-07-30T00:21:28;9.30;;;4.03;;
18623;SDS011;9441;51.420;7.036;2023-07-30T00:22:30;9.77;;;4.28;;
18623;SDS011;9441;51.420;7.036;2023-07-30T00:23:31;12.70;;;4.10;;
18623;SDS011;9441;51.420;7.036;2023-07-30T00:24:34;12.57;;;4.03;;
18623;SDS011;9441;51.420;7.036;2023-07-30T00:25:35;10.38;;;4.10;;
18623;SDS011;9441;51.420;7.036;2023-07-30T00:26:37;9.75;;;3.83;;
18623;SDS011;9441;51.420;7.036;2023-07-30T00:27:39;9.00;;;4.25;;
18623;SDS011;9441;51.420;7.036;2023-07-30T00:28:42;9.73;;;4.03;;
18623;SDS011;9441;51.420;7.036;2023-07-30T00:29:45;9.27;;;4.13;;
18623;SDS011;9441;51.420;7.036;2023-07-30T00:30:47;8.68;;;4.30;;
18623;SDS011;9441;51.420;7.036;2023-07-30T00:31:48;12.05;;;4.10;;
18623;SDS011;9441;51.420;7.036;2023-07-30T00:32:51;7.68;;;4.07;;
18623;SDS011;9441;51.420;7.036;2023-07-30T00:33:52;9.40;;;4.03;;
18623;SDS011;9441;51.420;7.036;2023-07-30T00:34:54;8.73;;;3.97;;
18623;SDS011;9441;51.420;7.036;2023-07-30T00:35:56;8.50;;;3.72;;
18623;SDS011;9441;51.420;7.036;2023-07-30T00:36:58;8.75;;;4.25;;
18623;SDS011;9441;51.420;7.036;2023-07-30T00:37:59;7.40;;;4.40;;
18623;SDS011;9441;51.420;7.036;2023-07-30T00:39:02;6.70;;;3.88;;
18623;SDS011;9441;51.420;7.036;2023-07-30T00:40:05;8.63;;;4.68;;
18623;SDS011;9441;51.420;7.036;2023-07-30T00:41:08;14.85;;;4.07;;
18623;SDS011;9441;51.420;7.036;2023-07-30T00:42:09;11.32;;;4.32;;
18623;SDS011;9441;51.420;7.036;2023-07-30T00:43:11;9.15;;;4.03;;
18623;SDS011;9441;51.420;7.036;2023-07-30T00:44:13;6.97;;;4.15;;
18623;SDS011;9441;51.420;7.036;2023-07-30T00:45:17;7.40;;;4.25;;
18623;SDS011;9441;51.420;7.036;2023-07-30T00:46:18;8.50;;;4.20;;
18623;SDS011;9441;51.420;7.036;2023-07-30T00:47:21;6.95;;;4.20;;
18623;SDS011;9441;51.420;7.036;2023-07-30T00:48:22;9.35;;;4.03;;
18623;SDS011;9441;51.420;7.036;2023-07-30T00:49:24;15.82;;;4.90;;
18623;SDS011;9441;51.420;7.036;2023-07-30T00:50:26;14.18;;;4.20;;
18623;SDS011;9441;51.420;7.036;2023-07-30T00:51:29;10.95;;;3.95;;
18623;SDS011;9441;51.420;7.036;2023-07-30T00:52:30;13.93;;;3.70;;
18623;SDS011;9441;51.420;7.036;2023-07-30T00:53:34;13.30;;;4.25;;
18623;SDS011;9441;51.420;7.036;2023-07-30T00:54:37;7.43;;;3.85;;
18623;SDS011;9441;51.420;7.036;2023-07-30T00:55:40;11.70;;;4.05;;
18623;SDS011;9441;51.420;7.036;2023-07-30T00:56:41;10.80;;;4.25;;
18623;SDS011;9441;51.420;7.036;2023-07-30T00:57:50;10.90;;;4.10;;
18623;SDS011;9441;51.420;7.036;2023-07-30T00:58:51;10.43;;;3.95;;
18623;SDS011;9441;51.420;7.036;2023-07-30T00:59:54;9.57;;;3.80;;
18623;SDS011;9441;51.420;7.036;2023-07-30T01:00:57;5.28;;;4.00;;
18623;SDS011;9441;51.420;7.036;2023-07-30T01:02:00;12.30;;;4.13;;
18623;SDS011;9441;51.420;7.036;2023-07-30T01:03:03;8.82;;;3.50;;
18623;SDS011;9441;51.420;7.036;2023-07-30T01:04:05;14.38;;;3.92;;
18623;SDS011;9441;51.420;7.036;2023-07-30T01:05:07;10.57;;;4.15;;
18623;SDS011;9441;51.420;7.036;2023-07-30T01:06:09;9.10;;;4.20;;
18623;SDS011;9441;51.420;7.036;2023-07-30T01:07:10;10.50;;;3.90;;
18623;SDS011;9441;51.420;7.036;2023-07-30T01:08:13;11.68;;;4.50;;
18623;SDS011;9441;51.420;7.036;2023-07-30T01:09:14;8.77;;;4.13;;
18623;SDS011;9441;51.420;7.036;2023-07-30T01:10:16;9.43;;;4.22;;
18623;SDS011;9441;51.420;7.036;2023-07-30T01:11:18;9.10;;;4.60;;
18623;SDS011;9441;51.420;7.036;2023-07-30T01:12:21;7.50;;;4.05;;
18623;SDS011;9441;51.420;7.036;2023-07-30T01:13:22;10.68;;;4.05;;
18623;SDS011;9441;51.420;7.036;2023-07-30T01:14:25;8.23;;;4.00;;
18623;SDS011;9441;51.420;7.036;2023-07-30T01:15:26;14.63;;;4.05;;
18623;SDS011;9441;51.420;7.036;2023-07-30T01:16:30;7.40;;;4.10;;
18623;SDS011;9441;51.420;7.036;2023-07-30T01:17:31;12.65;;;4.50;;
18623;SDS011;9441;51.420;7.036;2023-07-30T01:18:34;10.90;;;3.95;;
18623;SDS011;9441;51.420;7.036;2023-07-30T01:19:35;10.73;;;4.57;;
18623;SDS011;9441;51.420;7.036;2023-07-30T01:20:37;13.05;;;4.15;;
18623;SDS011;9441;51.420;7.036;2023-07-30T01:21:40;10.32;;;4.53;;
18623;SDS011;9441;51.420;7.036;2023-07-30T01:22:42;11.85;;;4.50;;
18623;SDS011;9441;51.420;7.036;2023-07-30T01:23:44;7.60;;;3.97;;
18623;SDS011;9441;51.420;7.036;2023-07-30T01:24:46;11.18;;;4.75;;
18623;SDS011;9441;51.420;7.036;2023-07-30T01:25:47;7.18;;;3.90;;
18623;SDS011;9441;51.420;7.036;2023-07-30T01:26:53;12.90;;;4.43;;
18623;SDS011;9441;51.420;7.036;2023-07-30T01:27:58;9.88;;;4.30;;
18623;SDS011;9441;51.420;7.036;2023-07-30T01:29:01;11.45;;;3.97;;
18623;SDS011;9441;51.420;7.036;2023-07-30T01:30:05;7.93;;;4.47;;
18623;SDS011;9441;51.420;7.036;2023-07-30T01:31:08;8.98;;;3.70;;
18623;SDS011;9441;51.420;7.036;2023-07-30T01:32:10;10.95;;;3.97;;
18623;SDS011;9441;51.420;7.036;2023-07-30T01:33:13;9.45;;;4.20;;
18623;SDS011;9441;51.420;7.036;2023-07-30T01:34:14;16.63;;;4.22;;
18623;SDS011;9441;51.420;7.036;2023-07-30T01:35:17;9.20;;;4.20;;
18623;SDS011;9441;51.420;7.036;2023-07-30T01:36:19;12.88;;;4.07;;
18623;SDS011;9441;51.420;7.036;2023-07-30T01:37:24;8.77;;;4.07;;
18623;SDS011;9441;51.420;7.036;2023-07-30T01:38:26;7.78;;;4.20;;
18623;SDS011;9441;51.420;7.036;2023-07-30T01:39:29;9.70;;;4.18;;
18623;SDS011;9441;51.420;7.036;2023-07-30T01:40:31;11.40;;;4.32;;
18623;SDS011;9441;51.420;7.036;2023-07-30T01:41:32;8.30;;;4.30;;
18623;SDS011;9441;51.420;7.036;2023-07-30T01:42:34;13.75;;;4.25;;
18623;SDS011;9441;51.420;7.036;2023-07-30T01:43:36;8.43;;;4.45;;
18623;SDS011;9441;51.420;7.036;2023-07-30T01:44:38;8.25;;;4.57;;
18623;SDS011;9441;51.420;7.036;2023-07-30T01:45:40;11.20;;;4.40;;
18623;SDS011;9441;51.420;7.036;2023-07-30T01:46:42;15.35;;;4.15;;
18623;SDS011;9441;51.420;7.036;2023-07-30T01:47:43;12.52;;;3.97;;
18623;SDS011;9441;51.420;7.036;2023-07-30T01:48:46;10.00;;;4.25;;
18623;SDS011;9441;51.420;7.036;2023-07-30T01:49:47;8.75;;;4.15;;
18623;SDS011;9441;51.420;7.036;2023-07-30T01:50:49;9.02;;;4.20;;
18623;SDS011;9441;51.420;7.036;2023-07-30T01:51:51;13.27;;;4.65;;
18623;SDS011;9441;51.420;7.036;2023-07-30T01:52:54;11.40;;;4.22;;
18623;SDS011;9441;51.420;7.036;2023-07-30T01:53:56;7.90;;;4.20;;
18623;SDS011;9441;51.420;7.036;2023-07-30T01:54:58;13.15;;;4.53;;
18623;SDS011;9441;51.420;7.036;2023-07-30T01:56:01;11.02;;;4.13;;
18623;SDS011;9441;51.420;7.036;2023-07-30T01:57:03;11.38;;;4.45;;
18623;SDS011;9441;51.420;7.036;2023-07-30T01:58:05;5.43;;;3.83;;
18623;SDS011;9441;51.420;7.036;2023-07-30T01:59:07;9.52;;;3.92;;
18623;SDS011;9441;51.420;7.036;2023-07-30T02:00:09;23.30;;;4.50;;
18623;SDS011;9441;51.420;7.036;2023-07-30T02:01:11;10.45;;;4.10;;
18623;SDS011;9441;51.420;7.036;2023-07-30T02:02:12;7.53;;;4.00;;
18623;SDS011;9441;51.420;7.036;2023-07-30T02:03:15;9.93;;;3.90;;
18623;SDS011;9441;51.420;7.036;2023-07-30T02:04:16;13.77;;;3.88;;
18623;SDS011;9441;51.420;7.036;2023-07-30T02:05:18;10.75;;;4.20;;
18623;SDS011;9441;51.420;7.036;2023-07-30T02:06:20;9.07;;;4.30;;
18623;SDS011;9441;51.420;7.036;2023-07-30T02:07:21;8.38;;;4.45;;
18623;SDS011;9441;51.420;7.036;2023-07-30T02:08:25;10.15;;;4.70;;
18623;SDS011;9441;51.420;7.036;2023-07-30T02:09:27;14.48;;;4.40;;
18623;SDS011;9441;51.420;7.036;2023-07-30T02:10:28;10.25;;;4.18;;
18623;SDS011;9441;51.420;7.036;2023-07-30T02:11:30;8.30;;;4.10;;
18623;SDS011;9441;51.420;7.036;2023-07-30T02:12:32;9.60;;;4.35;;
18623;SDS011;9441;51.420;7.036;2023-07-30T02:13:34;15.30;;;4.60;;
18623;SDS011;9441;51.420;7.036;2023-07-30T02:14:35;13.02;;;4.45;;
18623;SDS011;9441;51.420;7.036;2023-07-30T02:15:39;13.50;;;4.30;;
18623;SDS011;9441;51.420;7.036;2023-07-30T02:16:41;9.32;;;4.20;;
18623;SDS011;9441;51.420;7.036;2023-07-30T02:17:44;11.95;;;4.40;;
18623;SDS011;9441;51.420;7.036;2023-07-30T02:18:45;8.43;;;4.10;;
18623;SDS011;9441;51.420;7.036;2023-07-30T02:19:48;8.15;;;4.43;;
18623;SDS011;9441;51.420;7.036;2023-07-30T02:20:49;10.75;;;3.97;;
18623;SDS011;9441;51.420;7.036;2023-07-30T02:21:52;15.57;;;4.25;;
18623;SDS011;9441;51.420;7.036;2023-07-30T02:22:53;12.65;;;4.25;;
18623;SDS011;9441;51.420;7.036;2023-07-30T02:23:58;9.57;;;4.05;;
18623;SDS011;9441;51.420;7.036;2023-07-30T02:25:00;12.48;;;4.38;;
18623;SDS011;9441;51.420;7.036;2023-07-30T02:26:02;7.53;;;4.10;;
18623;SDS011;9441;51.420;7.036;2023-07-30T02:27:04;10.30;;;4.07;;
18623;SDS011;9441;51.420;7.036;2023-07-30T02:28:06;8.27;;;4.18;;
18623;SDS011;9441;51.420;7.036;2023-07-30T02:29:07;11.57;;;4.28;;
18623;SDS011;9441;51.420;7.036;2023-07-30T02:30:10;16.40;;;4.80;;
18623;SDS011;9441;51.420;7.036;2023-07-30T02:31:11;17.13;;;4.53;;
18623;SDS011;9441;51.420;7.036;2023-07-30T02:32:14;13.90;;;4.57;;
18623;SDS011;9441;51.420;7.036;2023-07-30T02:33:15;7.35;;;3.95;;
18623;SDS011;9441;51.420;7.036;2023-07-30T02:34:17;10.45;;;4.22;;
18623;SDS011;9441;51.420;7.036;2023-07-30T02:35:19;11.38;;;4.00;;
18623;SDS011;9441;51.420;7.036;2023-07-30T02:36:21;8.05;;;4.15;;
18623;SDS011;9441;51.420;7.036;2023-07-30T02:37:22;9.05;;;4.28;;
18623;SDS011;9441;51.420;7.036;2023-07-30T02:38:25;7.80;;;4.35;;
18623;SDS011;9441;51.420;7.036;2023-07-30T02:39:27;7.97;;;4.35;;
18623;SDS011;9441;51.420;7.036;2023-07-30T02:40:30;12.40;;;4.18;;
18623;SDS011;9441;51.420;7.036;2023-07-30T02:41:31;11.73;;;4.40;;
18623;SDS011;9441;51.420;7.036;2023-07-30T02:42:34;11.73;;;4.20;;
18623;SDS011;9441;51.420;7.036;2023-07-30T02:43:35;10.93;;;3.97;;
18623;SDS011;9441;51.420;7.036;2023-07-30T02:44:37;10.27;;;4.10;;
18623;SDS011;9441;51.420;7.036;2023-07-30T02:45:39;11.57;;;4.28;;
18623;SDS011;9441;51.420;7.036;2023-07-30T02:46:41;14.27;;;4.40;;
18623;SDS011;9441;51.420;7.036;2023-07-30T02:47:42;12.65;;;3.97;;
18623;SDS011;9441;51.420;7.036;2023-07-30T02:48:45;7.60;;;4.05;;
18623;SDS011;9441;51.420;7.036;2023-07-30T02:49:46;11.85;;;4.40;;
18623;SDS011;9441;51.420;7.036;2023-07-30T02:50:49;10.68;;;4.15;;
18623;SDS011;9441;51.420;7.036;2023-07-30T02:51:50;12.27;;;4.40;;
18623;SDS011;9441;51.420;7.036;2023-07-30T02:52:52;11.27;;;4.50;;
18623;SDS011;9441;51.420;7.036;2023-07-30T02:53:55;11.23;;;4.40;;
18623;SDS011;9441;51.420;7.036;2023-07-30T02:55:01;12.05;;;4.68;;
18623;SDS011;9441;51.420;7.036;2023-07-30T02:56:02;15.63;;;4.38;;
18623;SDS011;9441;51.420;7.036;2023-07-30T02:57:05;9.60;;;4.15;;
18623;SDS011;9441;51.420;7.036;2023-07-30T02:58:06;15.05;;;4.03;;
18623;SDS011;9441;51.420;7.036;2023-07-30T02:59:08;13.07;;;4.57;;
18623;SDS011;9441;51.420;7.036;2023-07-30T03:00:10;13.35;;;4.68;;
18623;SDS011;9441;51.420;7.036;2023-07-30T03:01:12;11.77;;;4.20;;
18623;SDS011;9441;51.420;7.036;2023-07-30T03:02:14;15.18;;;4.35;;
18623;SDS011;9441;51.420;7.036;2023-07-30T03:03:16;13.32;;;4.53;;
18623;SDS011;9441;51.420;7.036;2023-07-30T03:04:18;9.63;;;4.07;;
18623;SDS011;9441;51.420;7.036;2023-07-30T03:05:20;9.70;;;4.82;;
18623;SDS011;9441;51.420;7.036;2023-07-30T03:06:21;12.30;;;4.20;;
18623;SDS011;9441;51.420;7.036;2023-07-30T03:07:24;12.65;;;4.40;;
18623;SDS011;9441;51.420;7.036;2023-07-30T03:08:25;11.43;;;4.57;;
18623;SDS011;9441;51.420;7.036;2023-07-30T03:09:28;14.85;;;4.50;;
18623;SDS011;9441;51.420;7.036;2023-07-30T03:10:31;15.93;;;4.45;;
18623;SDS011;9441;51.420;7.036;2023-07-30T03:11:33;13.40;;;4.05;;
18623;SDS011;9441;51.420;7.036;2023-07-30T03:12:34;11.18;;;3.85;;
18623;SDS011;9441;51.420;7.036;2023-07-30T03:13:37;13.55;;;4.45;;
18623;SDS011;9441;51.420;7.036;2023-07-30T03:14:38;7.43;;;3.80;;
18623;SDS011;9441;51.420;7.036;2023-07-30T03:15:40;9.55;;;4.47;;
18623;SDS011;9441;51.420;7.036;2023-07-30T03:16:42;10.48;;;4.40;;
18623;SDS011;9441;51.420;7.036;2023-07-30T03:17:44;11.65;;;3.75;;
18623;SDS011;9441;51.420;7.036;2023-07-30T03:18:45;15.60;;;4.75;;
18623;SDS011;9441;51.420;7.036;2023-07-30T03:19:47;10.32;;;4.65;;
18623;SDS011;9441;51.420;7.036;2023-07-30T03:20:50;12.63;;;6.68;;
18623;SDS011;9441;51.420;7.036;2023-07-30T03:21:51;14.68;;;5.65;;
18623;SDS011;9441;51.420;7.036;2023-07-30T03:22:53;15.65;;;6.50;;
18623;SDS011;9441;51.420;7.036;2023-07-30T03:23:55;18.38;;;6.88;;
18623;SDS011;9441;51.420;7.036;2023-07-30T03:24:57;11.07;;;6.97;;
18623;SDS011;9441;51.420;7.036;2023-07-30T03:26:00;19.27;;;9.02;;
18623;SDS011;9441;51.420;7.036;2023-07-30T03:27:03;10.52;;;4.90;;
18623;SDS011;9441;51.420;7.036;2023-07-30T03:28:04;12.60;;;5.25;;
18623;SDS011;9441;51.420;7.036;2023-07-30T03:29:06;17.02;;;7.60;;
18623;SDS011;9441;51.420;7.036;2023-07-30T03:30:08;16.92;;;8.70;;
18623;SDS011;9441;51.420;7.036;2023-07-30T03:31:11;22.13;;;9.73;;
18623;SDS011;9441;51.420;7.036;2023-07-30T03:32:12;15.90;;;8.68;;
18623;SDS011;9441;51.420;7.036;2023-07-30T03:33:15;18.48;;;8.15;;
18623;SDS011;9441;51.420;7.036;2023-07-30T03:34:16;12.30;;;6.15;;
18623;SDS011;9441;51.420;7.036;2023-07-30T03:35:18;14.73;;;5.28;;
18623;SDS011;9441;51.420;7.036;2023-07-30T03:36:20;10.00;;;4.72;;
18623;SDS011;9441;51.420;7.036;2023-07-30T03:37:22;12.23;;;6.32;;
18623;SDS011;9441;51.420;7.036;2023-07-30T03:38:23;15.90;;;5.57;;
18623;SDS011;9441;51.420;7.036;2023-07-30T03:39:26;12.25;;;4.30;;
18623;SDS011;9441;51.420;7.036;2023-07-30T03:40:27;10.43;;;4.72;;
18623;SDS011;9441;51.420;7.036;2023-07-30T03:41:32;15.82;;;4.53;;
18623;SDS011;9441;51.420;7.036;2023-07-30T03:42:33;11.05;;;4.45;;
18623;SDS011;9441;51.420;7.036;2023-07-30T03:43:35;8.93;;;4.68;;
18623;SDS011;9441;51.420;7.036;2023-07-30T03:44:37;15.45;;;4.25;;
18623;SDS011;9441;51.420;7.036;2023-07-30T03:45:39;12.02;;;4.43;;
18623;SDS011;9441;51.420;7.036;2023-07-30T03:46:41;19.63;;;4.50;;
18623;SDS011;9441;51.420;7.036;2023-07-30T03:47:43;16.13;;;4.78;;
18623;SDS011;9441;51.420;7.036;2023-07-30T03:48:44;12.70;;;4.13;;
18623;SDS011;9441;51.420;7.036;2023-07-30T03:49:47;12.20;;;4.82;;
18623;SDS011;9441;51.420;7.036;2023-07-30T03:50:48;15.07;;;4.57;;
18623;SDS011;9441;51.420;7.036;2023-07-30T03:51:51;9.63;;;4.15;;
18623;SDS011;9441;51.420;7.036;2023-07-30T03:52:53;7.30;;;4.30;;
18623;SDS011;9441;51.420;7.036;2023-07-30T03:53:55;8.55;;;4.50;;
18623;SDS011;9441;51.420;7.036;2023-07-30T03:54:57;14.80;;;4.82;;
18623;SDS011;9441;51.420;7.036;2023-07-30T03:55:59;14.88;;;4.72;;
18623;SDS011;9441;51.420;7.036;2023-07-30T03:57:02;14.60;;;4.65;;
18623;SDS011;9441;51.420;7.036;2023-07-30T03:58:04;10.97;;;4.13;;
18623;SDS011;9441;51.420;7.036;2023-07-30T03:59:06;12.32;;;4.80;;
18623;SDS011;9441;51.420;7.036;2023-07-30T04:00:09;13.30;;;4.75;;
18623;SDS011;9441;51.420;7.036;2023-07-30T04:01:16;16.23;;;4.40;;
18623;SDS011;9441;51.420;7.036;2023-07-30T04:02:18;12.38;;;4.47;;
18623;SDS011;9441;51.420;7.036;2023-07-30T04:03:20;11.05;;;4.78;;
18623;SDS011;9441;51.420;7.036;2023-07-30T04:04:22;11.30;;;4.40;;
18623;SDS011;9441;51.420;7.036;2023-07-30T04:05:23;14.88;;;4.32;;
18623;SDS011;9441;51.420;7.036;2023-07-30T04:06:26;16.73;;;4.57;;
18623;SDS011;9441;51.420;7.036;2023-07-30T04:07:27;17.17;;;4.82;;
18623;SDS011;9441;51.420;7.036;2023-07-30T04:08:28;14.20;;;5.03;;
18623;SDS011;9441;51.420;7.036;2023-07-30T04:09:31;21.45;;;4.75;;
18623;SDS011;9441;51.420;7.036;2023-07-30T04:10:33;14.45;;;5.00;;
18623;SDS011;9441;51.420;7.036;2023-07-30T04:11:36;11.85;;;4.68;;
18623;SDS011;9441;51.420;7.036;2023-07-30T04:12:39;13.50;;;4.83;;
18623;SDS011;9441;51.420;7.036;2023-07-30T04:13:42;15.65;;;4.85;;
18623;SDS011;9441;51.420;7.036;2023-07-30T04:14:43;18.23;;;4.72;;
18623;SDS011;9441;51.420;7.036;2023-07-30T04:15:47;16.15;;;4.78;;
18623;SDS011;9441;51.420;7.036;2023-07-30T04:16:48;10.70;;;4.25;;
18623;SDS011;9441;51.420;7.036;2023-07-30T04:17:50;10.95;;;4.28;;
18623;SDS011;9441;51.420;7.036;2023-07-30T04:18:52;13.90;;;4.82;;
18623;SDS011;9441;51.420;7.036;2023-07-30T04:19:54;16.52;;;4.72;;
18623;SDS011;9441;51.420;7.036;2023-07-30T04:20:55;11.15;;;4.30;;
18623;SDS011;9441;51.420;7.036;2023-07-30T04:21:58;11.05;;;4.30;;
18623;SDS011;9441;51.420;7.036;2023-07-30T04:23:00;16.97;;;5.53;;
18623;SDS011;9441;51.420;7.036;2023-07-30T04:24:02;15.70;;;5.27;;
18623;SDS011;9441;51.420;7.036;2023-07-30T04:25:04;15.03;;;4.73;;
18623;SDS011;9441;51.420;7.036;2023-07-30T04:26:07;13.20;;;4.55;;
18623;SDS011;9441;51.420;7.036;2023-07-30T04:27:09;15.15;;;4.90;;
18623;SDS011;9441;51.420;7.036;2023-07-30T04:28:12;14.40;;;4.65;;
18623;SDS011;9441;51.420;7.036;2023-07-30T04:29:14;13.43;;;4.73;;
18623;SDS011;9441;51.420;7.036;2023-07-30T04:30:17;13.68;;;4.80;;
18623;SDS011;9441;51.420;7.036;2023-07-30T04:31:18;11.80;;;4.55;;
18623;SDS011;9441;51.420;7.036;2023-07-30T04:32:21;17.63;;;4.80;;
18623;SDS011;9441;51.420;7.036;2023-07-30T04:33:22;19.95;;;5.25;;
18623;SDS011;9441;51.420;7.036;2023-07-30T04:34:26;10.18;;;4.60;;
18623;SDS011;9441;51.420;7.036;2023-07-30T04:35:28;14.00;;;4.55;;
18623;SDS011;9441;51.420;7.036;2023-07-30T04:36:29;14.80;;;4.57;;
18623;SDS011;9441;51.420;7.036;2023-07-30T04:37:32;13.53;;;4.43;;
18623;SDS011;9441;51.420;7.036;2023-07-30T04:38:33;17.92;;;5.20;;
18623;SDS011;9441;51.420;7.036;2023-07-30T04:39:37;16.15;;;5.20;;
18623;SDS011;9441;51.420;7.036;2023-07-30T04:40:38;15.10;;;4.45;;
18623;SDS011;9441;51.420;7.036;2023-07-30T04:41:41;17.13;;;5.00;;
18623;SDS011;9441;51.420;7.036;2023-07-30T04:42:42;17.95;;;5.03;;
18623;SDS011;9441;51.420;7.036;2023-07-30T04:43:46;15.10;;;4.95;;
18623;SDS011;9441;51.420;7.036;2023-07-30T04:44:48;13.55;;;4.95;;
18623;SDS011;9441;51.420;7.036;2023-07-30T04:45:51;14.45;;;4.82;;
18623;SDS011;9441;51.420;7.036;2023-07-30T04:46:53;13.43;;;4.95;;
18623;SDS011;9441;51.420;7.036;2023-07-30T04:47:55;17.75;;;5.22;;
18623;SDS011;9441;51.420;7.036;2023-07-30T04:48:57;16.67;;;4.60;;
18623;SDS011;9441;51.420;7.036;2023-07-30T04:49:59;12.35;;;4.57;;
18623;SDS011;9441;51.420;7.036;2023-07-30T04:51:00;10.48;;;4.57;;
18623;SDS011;9441;51.420;7.036;2023-07-30T04:52:06;15.85;;;4.88;;
18623;SDS011;9441;51.420;7.036;2023-07-30T04:53:07;17.00;;;5.07;;
18623;SDS011;9441;51.420;7.036;2023-07-30T04:54:10;22.60;;;5.50;;
18623;SDS011;9441;51.420;7.036;2023-07-30T04:55:11;19.48;;;5.00;;
18623;SDS011;9441;51.420;7.036;2023-07-30T04:56:14;20.43;;;4.97;;
18623;SDS011;9441;51.420;7.036;2023-07-30T04:57:15;14.90;;;5.00;;
18623;SDS011;9441;51.420;7.036;2023-07-30T04:58:18;14.43;;;4.80;;
18623;SDS011;9441;51.420;7.036;2023-07-30T04:59:20;16.17;;;5.27;;
18623;SDS011;9441;51.420;7.036;2023-07-30T05:00:23;21.65;;;4.97;;
18623;SDS011;9441;51.420;7.036;2023-07-30T05:01:25;20.20;;;5.20;;
18623;SDS011;9441;51.420;7.036;2023-07-30T05:02:27;21.80;;;5.15;;
18623;SDS011;9441;51.420;7.036;2023-07-30T05:03:29;15.15;;;4.70;;
18623;SDS011;9441;51.420;7.036;2023-07-30T05:04:31;18.05;;;5.32;;
18623;SDS011;9441;51.420;7.036;2023-07-30T05:05:32;15.68;;;4.93;;
18623;SDS011;9441;51.420;7.036;2023-07-30T05:06:35;18.55;;;4.60;;
18623;SDS011;9441;51.420;7.036;2023-07-30T05:07:36;18.65;;;4.82;;
18623;SDS011;9441;51.420;7.036;2023-07-30T05:08:38;15.15;;;4.85;;
18623;SDS011;9441;51.420;7.036;2023-07-30T05:09:40;18.63;;;4.88;;
18623;SDS011;9441;51.420;7.036;2023-07-30T05:10:42;23.45;;;5.07;;
18623;SDS011;9441;51.420;7.036;2023-07-30T05:11:43;15.13;;;4.70;;
18623;SDS011;9441;51.420;7.036;2023-07-30T05:12:45;14.15;;;4.40;;
18623;SDS011;9441;51.420;7.036;2023-07-30T05:13:47;15.60;;;4.80;;
18623;SDS011;9441;51.420;7.036;2023-07-30T05:14:50;17.92;;;4.03;;
18623;SDS011;9441;51.420;7.036;2023-07-30T05:15:52;13.93;;;4.82;;
18623;SDS011;9441;51.420;7.036;2023-07-30T05:16:54;16.25;;;5.50;;
18623;SDS011;9441;51.420;7.036;2023-07-30T05:17:55;17.17;;;5.03;;
18623;SDS011;9441;51.420;7.036;2023-07-30T05:18:58;17.42;;;5.10;;
18623;SDS011;9441;51.420;7.036;2023-07-30T05:19:59;14.23;;;4.75;;
18623;SDS011;9441;51.420;7.036;2023-07-30T05:21:01;23.52;;;5.20;;
18623;SDS011;9441;51.420;7.036;2023-07-30T05:22:03;21.98;;;4.97;;
18623;SDS011;9441;51.420;7.036;2023-07-30T05:23:06;18.83;;;4.85;;
18623;SDS011;9441;51.420;7.036;2023-07-30T05:24:07;15.98;;;4.70;;
18623;SDS011;9441;51.420;7.036;2023-07-30T05:25:10;17.65;;;4.85;;
18623;SDS011;9441;51.420;7.036;2023-07-30T05:26:11;18.98;;;4.80;;
18623;SDS011;9441;51.420;7.036;2023-07-30T05:27:13;22.75;;;5.57;;
18623;SDS011;9441;51.420;7.036;2023-07-30T05:28:15;19.77;;;5.40;;
18623;SDS011;9441;51.420;7.036;2023-07-30T05:29:17;10.40;;;4.88;;
18623;SDS011;9441;51.420;7.036;2023-07-30T05:30:20;13.38;;;4.68;;
18623;SDS011;9441;51.420;7.036;2023-07-30T05:31:22;15.15;;;4.72;;
18623;SDS011;9441;51.420;7.036;2023-07-30T05:32:25;17.13;;;4.93;;
18623;SDS011;9441;51.420;7.036;2023-07-30T05:33:28;16.23;;;4.68;;
18623;SDS011;9441;51.420;7.036;2023-07-30T05:34:29;16.33;;;4.95;;
18623;SDS011;9441;51.420;7.036;2023-07-30T05:35:32;19.02;;;4.88;;
18623;SDS011;9441;51.420;7.036;2023-07-30T05:36:33;15.90;;;5.10;;
18623;SDS011;9441;51.420;7.036;2023-07-30T05:37:35;14.82;;;4.93;;
18623;SDS011;9441;51.420;7.036;2023-07-30T05:38:37;18.00;;;4.88;;
18623;SDS011;9441;51.420;7.036;2023-07-30T05:39:39;17.27;;;4.85;;
18623;SDS011;9441;51.420;7.036;2023-07-30T05:40:41;17.95;;;5.40;;
18623;SDS011;9441;51.420;7.036;2023-07-30T05:41:42;16.55;;;4.95;;
18623;SDS011;9441;51.420;7.036;2023-07-30T05:42:45;16.17;;;4.50;;
18623;SDS011;9441;51.420;7.036;2023-07-30T05:43:46;12.70;;;5.50;;
18623;SDS011;9441;51.420;7.036;2023-07-30T05:44:49;17.30;;;5.22;;
18623;SDS011;9441;51.420;7.036;2023-07-30T05:45:51;14.43;;;4.68;;
18623;SDS011;9441;51.420;7.036;2023-07-30T05:46:53;22.85;;;5.10;;
18623;SDS011;9441;51.420;7.036;2023-07-30T05:47:55;21.52;;;5.05;;
18623;SDS011;9441;51.420;7.036;2023-07-30T05:48:57;23.98;;;5.20;;
18623;SDS011;9441;51.420;7.036;2023-07-30T05:49:58;19.30;;;5.50;;
18623;SDS011;9441;51.420;7.036;2023-07-30T05:51:01;19.55;;;5.20;;
18623;SDS011;9441;51.420;7.036;2023-07-30T05:52:03;22.23;;;4.93;;
18623;SDS011;9441;51.420;7.036;2023-07-30T05:53:05;20.05;;;5.50;;
18623;SDS011;9441;51.420;7.036;2023-07-30T05:54:06;18.58;;;4.63;;
18623;SDS011;9441;51.420;7.036;2023-07-30T05:55:09;16.08;;;4.78;;
18623;SDS011;9441;51.420;7.036;2023-07-30T05:56:10;16.13;;;5.40;;
18623;SDS011;9441;51.420;7.036;2023-07-30T05:57:14;23.77;;;5.03;;
18623;SDS011;9441;51.420;7.036;2023-07-30T05:58:15;19.13;;;4.75;;
18623;SDS011;9441;51.420;7.036;2023-07-30T05:59:18;18.67;;;4.57;;
18623;SDS011;9441;51.420;7.036;2023-07-30T06:00:19;13.55;;;4.57;;
18623;SDS011;9441;51.420;7.036;2023-07-30T06:01:23;14.25;;;4.35;;
18623;SDS011;9441;51.420;7.036;2023-07-30T06:02:24;13.70;;;4.75;;
18623;SDS011;9441;51.420;7.036;2023-07-30T06:03:25;20.15;;;4.57;;
18623;SDS011;9441;51.420;7.036;2023-07-30T06:04:28;21.50;;;4.88;;
18623;SDS011;9441;51.420;7.036;2023-07-30T06:05:29;18.83;;;4.60;;
18623;SDS011;9441;51.420;7.036;2023-07-30T06:06:31;16.98;;;4.90;;
18623;SDS011;9441;51.420;7.036;2023-07-30T06:07:33;14.55;;;4.43;;
18623;SDS011;9441;51.420;7.036;2023-07-30T06:08:35;16.05;;;4.50;;
18623;SDS011;9441;51.420;7.036;2023-07-30T06:09:36;13.52;;;4.10;;
18623;SDS011;9441;51.420;7.036;2023-07-30T06:10:38;17.10;;;4.28;;
18623;SDS011;9441;51.420;7.036;2023-07-30T06:11:41;14.88;;;4.47;;
18623;SDS011;9441;51.420;7.036;2023-07-30T06:12:42;18.63;;;4.32;;
18623;SDS011;9441;51.420;7.036;2023-07-30T06:13:44;17.75;;;4.57;;
18623;SDS011;9441;51.420;7.036;2023-07-30T06:14:45;16.02;;;4.32;;
18623;SDS011;9441;51.420;7.036;2023-07-30T06:15:47;12.50;;;4.15;;